sensor_id;sensor_type;location;lat;lon;timestamp;P1;durP1;ratioP1;P2;durP2;ratioP2
17727;SDS011;8984;49.268;12.302;2023-12-29T00:01:11;4.83;;;4.00;;
17727;SDS011;8984;49.268;12.302;2023-12-29T00:03:40;6.20;;;3.80;;
17727;SDS011;8984;49.268;12.302;2023-12-29T00:08:56;4.03;;;3.57;;
17727;SDS011;8984;49.268;12.302;2023-12-29T00:11:43;4.27;;;3.77;;
17727;SDS011;8984;49.268;12.302;2023-12-29T00:14:25;8.67;;;4.10;;
17727;SDS011;8984;49.268;12.302;2023-12-29T00:17:08;4.83;;;4.07;;
17727;SDS011;8984;49.268;12.302;2023-12-29T00:19:39;5.50;;;3.80;;
17727;SDS011;8984;49.268;12.302;2023-12-29T00:22:15;4.50;;;3.70;;
17727;SDS011;8984;49.268;12.302;2023-12-29T00:24:57;3.93;;;3.53;;
17727;SDS011;8984;49.268;12.302;2023-12-29T00:27:29;4.10;;;3.60;;
17727;SDS011;8984;49.268;12.302;2023-12-29T00:30:13;5.97;;;3.90;;
17727;SDS011;8984;49.268;12.302;2023-12-29T00:32:46;5.20;;;3.83;;
17727;SDS011;8984;49.268;12.302;2023-12-29T00:35:22;4.20;;;3.77;;
17727;SDS011;8984;49.268;12.302;2023-12-29T00:37:53;4.47;;;3.93;;
17727;SDS011;8984;49.268;12.302;2023-12-29T00:40:30;5.33;;;4.30;;
17727;SDS011;8984;49.268;12.302;2023-12-29T00:43:30;7.20;;;3.90;;
17727;SDS011;8984;49.268;12.302;2023-12-29T00:46:25;7.03;;;4.37;;
17727;SDS011;8984;49.268;12.302;2023-12-29T00:48:53;8.30;;;4.77;;
17727;SDS011;8984;49.268;12.302;2023-12-29T00:51:53;5.37;;;4.63;;
17727;SDS011;8984;49.268;12.302;2023-12-29T00:54:32;7.07;;;5.10;;
17727;SDS011;8984;49.268;12.302;2023-12-29T00:57:15;6.50;;;5.10;;
17727;SDS011;8984;49.268;12.302;2023-12-29T00:59:46;8.33;;;5.30;;
17727;SDS011;8984;49.268;12.302;2023-12-29T01:02:17;7.73;;;5.30;;
17727;SDS011;8984;49.268;12.302;2023-12-29T01:05:18;7.27;;;5.20;;
17727;SDS011;8984;49.268;12.302;2023-12-29T01:08:04;7.40;;;5.40;;
17727;SDS011;8984;49.268;12.302;2023-12-29T01:10:37;6.60;;;5.00;;
17727;SDS011;8984;49.268;12.302;2023-12-29T01:13:10;6.57;;;5.60;;
17727;SDS011;8984;49.268;12.302;2023-12-29T01:16:02;9.43;;;6.30;;
17727;SDS011;8984;49.268;12.302;2023-12-29T01:18:39;6.23;;;5.30;;
17727;SDS011;8984;49.268;12.302;2023-12-29T01:21:26;8.37;;;5.70;;
17727;SDS011;8984;49.268;12.302;2023-12-29T01:23:59;8.27;;;5.80;;
17727;SDS011;8984;49.268;12.302;2023-12-29T01:26:45;7.87;;;5.60;;
17727;SDS011;8984;49.268;12.302;2023-12-29T01:29:22;7.13;;;4.97;;
17727;SDS011;8984;49.268;12.302;2023-12-29T01:31:50;5.20;;;4.70;;
17727;SDS011;8984;49.268;12.302;2023-12-29T01:34:21;6.30;;;4.90;;
17727;SDS011;8984;49.268;12.302;2023-12-29T01:36:57;6.90;;;5.37;;
17727;SDS011;8984;49.268;12.302;2023-12-29T01:39:28;5.77;;;5.17;;
17727;SDS011;8984;49.268;12.302;2023-12-29T01:42:08;6.43;;;4.70;;
17727;SDS011;8984;49.268;12.302;2023-12-29T01:44:55;5.83;;;4.27;;
17727;SDS011;8984;49.268;12.302;2023-12-29T01:47:25;6.20;;;4.30;;
17727;SDS011;8984;49.268;12.302;2023-12-29T01:50:04;5.20;;;4.43;;
17727;SDS011;8984;49.268;12.302;2023-12-29T01:52:37;6.00;;;4.63;;
17727;SDS011;8984;49.268;12.302;2023-12-29T01:55:06;5.43;;;4.43;;
17727;SDS011;8984;49.268;12.302;2023-12-29T01:57:38;5.80;;;4.10;;
17727;SDS011;8984;49.268;12.302;2023-12-29T02:00:10;6.10;;;4.10;;
17727;SDS011;8984;49.268;12.302;2023-12-29T02:02:56;5.60;;;4.60;;
17727;SDS011;8984;49.268;12.302;2023-12-29T02:05:28;4.87;;;4.20;;
17727;SDS011;8984;49.268;12.302;2023-12-29T02:08:01;5.13;;;4.40;;
17727;SDS011;8984;49.268;12.302;2023-12-29T02:10:35;5.77;;;4.60;;
17727;SDS011;8984;49.268;12.302;2023-12-29T02:13:06;6.10;;;4.50;;
17727;SDS011;8984;49.268;12.302;2023-12-29T02:15:40;6.37;;;4.80;;
17727;SDS011;8984;49.268;12.302;2023-12-29T02:18:09;6.37;;;4.93;;
17727;SDS011;8984;49.268;12.302;2023-12-29T02:23:49;6.03;;;5.33;;
17727;SDS011;8984;49.268;12.302;2023-12-29T02:26:28;6.27;;;5.33;;
17727;SDS011;8984;49.268;12.302;2023-12-29T02:29:10;6.20;;;5.20;;
17727;SDS011;8984;49.268;12.302;2023-12-29T02:34:41;5.53;;;4.80;;
17727;SDS011;8984;49.268;12.302;2023-12-29T02:40:06;5.20;;;4.57;;
17727;SDS011;8984;49.268;12.302;2023-12-29T02:42:41;6.27;;;4.50;;
17727;SDS011;8984;49.268;12.302;2023-12-29T02:45:22;4.73;;;4.30;;
17727;SDS011;8984;49.268;12.302;2023-12-29T02:47:56;5.47;;;4.20;;
17727;SDS011;8984;49.268;12.302;2023-12-29T02:50:26;5.40;;;4.27;;
17727;SDS011;8984;49.268;12.302;2023-12-29T02:52:58;4.73;;;3.97;;
17727;SDS011;8984;49.268;12.302;2023-12-29T02:55:39;3.80;;;3.40;;
17727;SDS011;8984;49.268;12.302;2023-12-29T02:58:30;4.20;;;3.77;;
17727;SDS011;8984;49.268;12.302;2023-12-29T03:01:06;4.17;;;3.77;;
17727;SDS011;8984;49.268;12.302;2023-12-29T03:03:36;4.40;;;3.90;;
17727;SDS011;8984;49.268;12.302;2023-12-29T03:06:09;5.03;;;4.00;;
17727;SDS011;8984;49.268;12.302;2023-12-29T03:08:40;4.80;;;3.37;;
17727;SDS011;8984;49.268;12.302;2023-12-29T03:11:08;3.93;;;3.50;;
17727;SDS011;8984;49.268;12.302;2023-12-29T03:13:39;4.80;;;3.90;;
17727;SDS011;8984;49.268;12.302;2023-12-29T03:16:08;5.17;;;3.73;;
17727;SDS011;8984;49.268;12.302;2023-12-29T03:18:43;4.93;;;3.70;;
17727;SDS011;8984;49.268;12.302;2023-12-29T03:24:25;4.90;;;4.03;;
17727;SDS011;8984;49.268;12.302;2023-12-29T03:26:57;4.07;;;3.67;;
17727;SDS011;8984;49.268;12.302;2023-12-29T03:32:45;4.50;;;3.83;;
17727;SDS011;8984;49.268;12.302;2023-12-29T03:35:20;4.53;;;4.03;;
17727;SDS011;8984;49.268;12.302;2023-12-29T03:37:56;4.97;;;4.20;;
17727;SDS011;8984;49.268;12.302;2023-12-29T03:40:24;6.93;;;4.20;;
17727;SDS011;8984;49.268;12.302;2023-12-29T03:42:53;4.37;;;3.90;;
17727;SDS011;8984;49.268;12.302;2023-12-29T03:45:28;6.07;;;4.87;;
17727;SDS011;8984;49.268;12.302;2023-12-29T03:48:04;5.10;;;4.33;;
17727;SDS011;8984;49.268;12.302;2023-12-29T03:50:37;4.80;;;4.30;;
17727;SDS011;8984;49.268;12.302;2023-12-29T03:53:11;6.60;;;4.77;;
17727;SDS011;8984;49.268;12.302;2023-12-29T03:55:56;5.93;;;4.63;;
17727;SDS011;8984;49.268;12.302;2023-12-29T03:58:33;5.37;;;4.30;;
17727;SDS011;8984;49.268;12.302;2023-12-29T04:01:08;5.70;;;4.60;;
17727;SDS011;8984;49.268;12.302;2023-12-29T04:04:09;5.83;;;4.30;;
17727;SDS011;8984;49.268;12.302;2023-12-29T04:06:36;6.73;;;4.70;;
17727;SDS011;8984;49.268;12.302;2023-12-29T04:11:51;5.93;;;4.60;;
17727;SDS011;8984;49.268;12.302;2023-12-29T04:14:19;5.20;;;4.43;;
17727;SDS011;8984;49.268;12.302;2023-12-29T04:16:58;6.20;;;4.93;;
17727;SDS011;8984;49.268;12.302;2023-12-29T04:19:47;9.30;;;4.90;;
17727;SDS011;8984;49.268;12.302;2023-12-29T04:22:54;5.80;;;4.57;;
17727;SDS011;8984;49.268;12.302;2023-12-29T04:25:30;5.47;;;4.57;;
17727;SDS011;8984;49.268;12.302;2023-12-29T04:28:03;6.33;;;4.53;;
17727;SDS011;8984;49.268;12.302;2023-12-29T04:30:39;5.63;;;4.60;;
17727;SDS011;8984;49.268;12.302;2023-12-29T04:33:27;5.90;;;4.80;;
17727;SDS011;8984;49.268;12.302;2023-12-29T04:36:17;5.40;;;4.50;;
17727;SDS011;8984;49.268;12.302;2023-12-29T04:39:02;6.33;;;4.40;;
17727;SDS011;8984;49.268;12.302;2023-12-29T04:41:35;5.33;;;4.20;;
17727;SDS011;8984;49.268;12.302;2023-12-29T04:44:07;5.30;;;4.40;;
17727;SDS011;8984;49.268;12.302;2023-12-29T04:46:51;6.63;;;4.50;;
17727;SDS011;8984;49.268;12.302;2023-12-29T04:49:26;6.50;;;4.90;;
17727;SDS011;8984;49.268;12.302;2023-12-29T04:52:08;5.80;;;4.67;;
17727;SDS011;8984;49.268;12.302;2023-12-29T04:54:51;6.07;;;4.97;;
17727;SDS011;8984;49.268;12.302;2023-12-29T04:57:21;7.23;;;4.73;;
17727;SDS011;8984;49.268;12.302;2023-12-29T04:59:52;5.90;;;4.30;;
17727;SDS011;8984;49.268;12.302;2023-12-29T05:02:21;7.40;;;4.47;;
17727;SDS011;8984;49.268;12.302;2023-12-29T05:04:54;5.70;;;5.20;;
17727;SDS011;8984;49.268;12.302;2023-12-29T05:07:23;5.37;;;4.33;;
17727;SDS011;8984;49.268;12.302;2023-12-29T05:09:59;6.53;;;4.77;;
17727;SDS011;8984;49.268;12.302;2023-12-29T05:12:47;5.63;;;5.00;;
17727;SDS011;8984;49.268;12.302;2023-12-29T05:15:15;5.70;;;5.07;;
17727;SDS011;8984;49.268;12.302;2023-12-29T05:17:59;5.33;;;4.77;;
17727;SDS011;8984;49.268;12.302;2023-12-29T05:20:33;5.57;;;4.80;;
17727;SDS011;8984;49.268;12.302;2023-12-29T05:23:10;5.73;;;4.40;;
17727;SDS011;8984;49.268;12.302;2023-12-29T05:25:46;5.93;;;4.70;;
17727;SDS011;8984;49.268;12.302;2023-12-29T05:28:22;6.63;;;5.00;;
17727;SDS011;8984;49.268;12.302;2023-12-29T05:31:02;5.27;;;4.77;;
17727;SDS011;8984;49.268;12.302;2023-12-29T05:33:30;8.30;;;4.80;;
17727;SDS011;8984;49.268;12.302;2023-12-29T05:39:10;5.00;;;4.30;;
17727;SDS011;8984;49.268;12.302;2023-12-29T05:44:38;5.57;;;4.83;;
17727;SDS011;8984;49.268;12.302;2023-12-29T05:47:35;5.53;;;4.53;;
17727;SDS011;8984;49.268;12.302;2023-12-29T05:50:19;6.43;;;4.80;;
17727;SDS011;8984;49.268;12.302;2023-12-29T05:53:05;6.77;;;5.20;;
17727;SDS011;8984;49.268;12.302;2023-12-29T05:58:34;7.40;;;5.00;;
17727;SDS011;8984;49.268;12.302;2023-12-29T06:01:08;5.93;;;4.47;;
17727;SDS011;8984;49.268;12.302;2023-12-29T06:03:39;6.93;;;5.17;;
17727;SDS011;8984;49.268;12.302;2023-12-29T06:06:13;6.23;;;5.30;;
17727;SDS011;8984;49.268;12.302;2023-12-29T06:08:58;7.13;;;5.30;;
17727;SDS011;8984;49.268;12.302;2023-12-29T06:11:30;6.07;;;5.20;;
17727;SDS011;8984;49.268;12.302;2023-12-29T06:14:00;14.90;;;8.60;;
17727;SDS011;8984;49.268;12.302;2023-12-29T06:16:29;9.73;;;6.57;;
17727;SDS011;8984;49.268;12.302;2023-12-29T06:19:02;6.83;;;5.60;;
17727;SDS011;8984;49.268;12.302;2023-12-29T06:21:43;7.93;;;5.77;;
17727;SDS011;8984;49.268;12.302;2023-12-29T06:24:43;6.03;;;5.37;;
17727;SDS011;8984;49.268;12.302;2023-12-29T06:27:10;7.17;;;6.13;;
17727;SDS011;8984;49.268;12.302;2023-12-29T06:29:40;9.93;;;8.93;;
17727;SDS011;8984;49.268;12.302;2023-12-29T06:32:07;7.13;;;6.43;;
17727;SDS011;8984;49.268;12.302;2023-12-29T06:34:35;7.43;;;6.47;;
17727;SDS011;8984;49.268;12.302;2023-12-29T06:37:03;6.60;;;5.60;;
17727;SDS011;8984;49.268;12.302;2023-12-29T06:39:41;6.73;;;5.53;;
17727;SDS011;8984;49.268;12.302;2023-12-29T06:42:11;5.77;;;5.00;;
17727;SDS011;8984;49.268;12.302;2023-12-29T06:44:41;6.57;;;5.33;;
17727;SDS011;8984;49.268;12.302;2023-12-29T06:47:15;5.73;;;4.80;;
17727;SDS011;8984;49.268;12.302;2023-12-29T06:49:49;5.53;;;5.00;;
17727;SDS011;8984;49.268;12.302;2023-12-29T06:52:18;6.60;;;5.17;;
17727;SDS011;8984;49.268;12.302;2023-12-29T06:54:57;5.43;;;4.93;;
17727;SDS011;8984;49.268;12.302;2023-12-29T06:57:31;6.30;;;5.30;;
17727;SDS011;8984;49.268;12.302;2023-12-29T07:00:13;6.30;;;4.97;;
17727;SDS011;8984;49.268;12.302;2023-12-29T07:02:42;5.90;;;4.90;;
17727;SDS011;8984;49.268;12.302;2023-12-29T07:05:12;7.27;;;5.43;;
17727;SDS011;8984;49.268;12.302;2023-12-29T07:07:47;6.53;;;5.43;;
17727;SDS011;8984;49.268;12.302;2023-12-29T07:10:18;5.60;;;4.97;;
17727;SDS011;8984;49.268;12.302;2023-12-29T07:13:32;6.67;;;5.47;;
17727;SDS011;8984;49.268;12.302;2023-12-29T07:16:09;6.70;;;5.20;;
17727;SDS011;8984;49.268;12.302;2023-12-29T07:18:53;9.67;;;5.57;;
17727;SDS011;8984;49.268;12.302;2023-12-29T07:21:39;9.20;;;6.60;;
17727;SDS011;8984;49.268;12.302;2023-12-29T07:24:26;8.47;;;5.67;;
17727;SDS011;8984;49.268;12.302;2023-12-29T07:27:08;8.80;;;5.30;;
17727;SDS011;8984;49.268;12.302;2023-12-29T07:29:36;6.93;;;5.33;;
17727;SDS011;8984;49.268;12.302;2023-12-29T07:32:19;7.17;;;5.40;;
17727;SDS011;8984;49.268;12.302;2023-12-29T07:34:49;8.00;;;6.60;;
17727;SDS011;8984;49.268;12.302;2023-12-29T07:37:23;9.27;;;6.10;;
17727;SDS011;8984;49.268;12.302;2023-12-29T07:39:51;6.97;;;5.70;;
17727;SDS011;8984;49.268;12.302;2023-12-29T07:42:32;5.87;;;5.20;;
17727;SDS011;8984;49.268;12.302;2023-12-29T07:45:05;6.80;;;5.57;;
17727;SDS011;8984;49.268;12.302;2023-12-29T07:47:46;7.57;;;5.60;;
17727;SDS011;8984;49.268;12.302;2023-12-29T07:50:37;6.60;;;5.33;;
17727;SDS011;8984;49.268;12.302;2023-12-29T07:53:08;7.30;;;5.60;;
17727;SDS011;8984;49.268;12.302;2023-12-29T07:55:42;6.17;;;5.27;;
17727;SDS011;8984;49.268;12.302;2023-12-29T07:58:17;7.67;;;6.27;;
17727;SDS011;8984;49.268;12.302;2023-12-29T08:00:55;7.40;;;5.87;;
17727;SDS011;8984;49.268;12.302;2023-12-29T08:03:34;27.17;;;16.73;;
17727;SDS011;8984;49.268;12.302;2023-12-29T08:06:04;36.03;;;22.40;;
17727;SDS011;8984;49.268;12.302;2023-12-29T08:08:45;40.93;;;25.20;;
17727;SDS011;8984;49.268;12.302;2023-12-29T08:11:13;50.97;;;28.70;;
17727;SDS011;8984;49.268;12.302;2023-12-29T08:13:44;36.10;;;20.77;;
17727;SDS011;8984;49.268;12.302;2023-12-29T08:16:15;36.17;;;20.70;;
17727;SDS011;8984;49.268;12.302;2023-12-29T08:18:50;22.17;;;14.13;;
17727;SDS011;8984;49.268;12.302;2023-12-29T08:21:25;11.20;;;8.23;;
17727;SDS011;8984;49.268;12.302;2023-12-29T08:23:58;8.43;;;5.90;;
17727;SDS011;8984;49.268;12.302;2023-12-29T08:26:27;6.83;;;5.83;;
17727;SDS011;8984;49.268;12.302;2023-12-29T08:29:08;5.77;;;5.13;;
17727;SDS011;8984;49.268;12.302;2023-12-29T08:31:38;5.90;;;4.93;;
17727;SDS011;8984;49.268;12.302;2023-12-29T08:34:06;6.37;;;4.50;;
17727;SDS011;8984;49.268;12.302;2023-12-29T08:36:38;6.33;;;5.23;;
17727;SDS011;8984;49.268;12.302;2023-12-29T08:39:14;8.83;;;5.63;;
17727;SDS011;8984;49.268;12.302;2023-12-29T08:41:43;5.73;;;5.00;;
17727;SDS011;8984;49.268;12.302;2023-12-29T08:44:14;6.33;;;5.43;;
17727;SDS011;8984;49.268;12.302;2023-12-29T08:46:42;5.90;;;5.00;;
17727;SDS011;8984;49.268;12.302;2023-12-29T08:49:20;6.20;;;5.20;;
17727;SDS011;8984;49.268;12.302;2023-12-29T08:51:48;6.43;;;5.40;;
17727;SDS011;8984;49.268;12.302;2023-12-29T08:54:27;7.30;;;5.93;;
17727;SDS011;8984;49.268;12.302;2023-12-29T08:56:57;9.70;;;7.83;;
17727;SDS011;8984;49.268;12.302;2023-12-29T08:59:27;11.10;;;8.20;;
17727;SDS011;8984;49.268;12.302;2023-12-29T09:01:54;11.50;;;8.70;;
17727;SDS011;8984;49.268;12.302;2023-12-29T09:04:21;9.60;;;7.87;;
17727;SDS011;8984;49.268;12.302;2023-12-29T09:06:49;13.43;;;8.77;;
17727;SDS011;8984;49.268;12.302;2023-12-29T09:09:21;7.10;;;5.20;;
17727;SDS011;8984;49.268;12.302;2023-12-29T09:11:48;6.63;;;5.33;;
17727;SDS011;8984;49.268;12.302;2023-12-29T09:14:26;5.63;;;4.57;;
17727;SDS011;8984;49.268;12.302;2023-12-29T09:17:02;4.90;;;4.40;;
17727;SDS011;8984;49.268;12.302;2023-12-29T09:19:34;4.67;;;4.17;;
17727;SDS011;8984;49.268;12.302;2023-12-29T09:22:07;5.23;;;4.40;;
17727;SDS011;8984;49.268;12.302;2023-12-29T09:24:42;5.77;;;4.60;;
17727;SDS011;8984;49.268;12.302;2023-12-29T09:27:10;4.67;;;4.17;;
17727;SDS011;8984;49.268;12.302;2023-12-29T09:29:47;5.23;;;4.07;;
17727;SDS011;8984;49.268;12.302;2023-12-29T09:32:22;8.47;;;5.37;;
17727;SDS011;8984;49.268;12.302;2023-12-29T09:34:50;4.83;;;4.23;;
17727;SDS011;8984;49.268;12.302;2023-12-29T09:37:28;7.67;;;4.37;;
17727;SDS011;8984;49.268;12.302;2023-12-29T09:40:08;6.67;;;4.70;;
17727;SDS011;8984;49.268;12.302;2023-12-29T09:42:40;8.00;;;4.43;;
17727;SDS011;8984;49.268;12.302;2023-12-29T09:45:14;7.57;;;4.30;;
17727;SDS011;8984;49.268;12.302;2023-12-29T09:47:50;5.63;;;4.43;;
17727;SDS011;8984;49.268;12.302;2023-12-29T09:50:23;6.33;;;4.60;;
17727;SDS011;8984;49.268;12.302;2023-12-29T09:52:52;5.47;;;4.10;;
17727;SDS011;8984;49.268;12.302;2023-12-29T09:55:22;4.63;;;4.20;;
17727;SDS011;8984;49.268;12.302;2023-12-29T09:58:01;5.53;;;4.80;;
17727;SDS011;8984;49.268;12.302;2023-12-29T10:00:31;6.27;;;4.37;;
17727;SDS011;8984;49.268;12.302;2023-12-29T10:02:59;5.33;;;4.10;;
17727;SDS011;8984;49.268;12.302;2023-12-29T10:05:28;5.83;;;4.80;;
17727;SDS011;8984;49.268;12.302;2023-12-29T10:07:57;5.60;;;4.00;;
17727;SDS011;8984;49.268;12.302;2023-12-29T10:10:28;5.07;;;4.07;;
17727;SDS011;8984;49.268;12.302;2023-12-29T10:13:01;4.50;;;3.67;;
17727;SDS011;8984;49.268;12.302;2023-12-29T10:15:40;5.43;;;4.60;;
17727;SDS011;8984;49.268;12.302;2023-12-29T10:18:18;6.47;;;4.97;;
17727;SDS011;8984;49.268;12.302;2023-12-29T10:20:50;4.20;;;3.80;;
17727;SDS011;8984;49.268;12.302;2023-12-29T10:23:25;5.33;;;4.73;;
17727;SDS011;8984;49.268;12.302;2023-12-29T10:26:02;4.43;;;3.73;;
17727;SDS011;8984;49.268;12.302;2023-12-29T10:28:33;4.23;;;3.83;;
17727;SDS011;8984;49.268;12.302;2023-12-29T10:31:03;5.27;;;3.90;;
17727;SDS011;8984;49.268;12.302;2023-12-29T10:33:35;4.40;;;3.80;;
17727;SDS011;8984;49.268;12.302;2023-12-29T10:36:03;11.17;;;7.37;;
17727;SDS011;8984;49.268;12.302;2023-12-29T10:38:32;7.33;;;4.30;;
17727;SDS011;8984;49.268;12.302;2023-12-29T10:41:10;4.83;;;4.33;;
17727;SDS011;8984;49.268;12.302;2023-12-29T10:43:43;5.27;;;4.33;;
17727;SDS011;8984;49.268;12.302;2023-12-29T10:46:18;5.70;;;4.80;;
17727;SDS011;8984;49.268;12.302;2023-12-29T10:48:45;4.83;;;4.00;;
17727;SDS011;8984;49.268;12.302;2023-12-29T10:51:13;6.20;;;3.90;;
17727;SDS011;8984;49.268;12.302;2023-12-29T10:53:41;5.47;;;3.93;;
17727;SDS011;8984;49.268;12.302;2023-12-29T10:56:22;4.20;;;3.73;;
17727;SDS011;8984;49.268;12.302;2023-12-29T10:58:58;4.27;;;3.87;;
17727;SDS011;8984;49.268;12.302;2023-12-29T11:01:29;5.73;;;4.20;;
17727;SDS011;8984;49.268;12.302;2023-12-29T11:04:08;6.67;;;4.57;;
17727;SDS011;8984;49.268;12.302;2023-12-29T11:06:45;4.53;;;4.00;;
17727;SDS011;8984;49.268;12.302;2023-12-29T11:09:20;6.03;;;4.30;;
17727;SDS011;8984;49.268;12.302;2023-12-29T11:11:59;5.53;;;4.17;;
17727;SDS011;8984;49.268;12.302;2023-12-29T11:14:29;7.40;;;4.70;;
17727;SDS011;8984;49.268;12.302;2023-12-29T11:17:04;5.40;;;4.30;;
17727;SDS011;8984;49.268;12.302;2023-12-29T11:19:40;6.50;;;4.00;;
17727;SDS011;8984;49.268;12.302;2023-12-29T11:22:10;5.80;;;4.37;;
17727;SDS011;8984;49.268;12.302;2023-12-29T11:24:37;4.80;;;3.87;;
17727;SDS011;8984;49.268;12.302;2023-12-29T11:27:06;3.90;;;3.30;;
17727;SDS011;8984;49.268;12.302;2023-12-29T11:29:34;5.27;;;4.23;;
17727;SDS011;8984;49.268;12.302;2023-12-29T11:32:07;6.67;;;3.53;;
17727;SDS011;8984;49.268;12.302;2023-12-29T11:34:41;4.00;;;3.37;;
17727;SDS011;8984;49.268;12.302;2023-12-29T11:37:23;3.57;;;3.20;;
17727;SDS011;8984;49.268;12.302;2023-12-29T11:40:04;4.93;;;3.27;;
17727;SDS011;8984;49.268;12.302;2023-12-29T11:42:42;6.47;;;4.53;;
17727;SDS011;8984;49.268;12.302;2023-12-29T11:45:28;5.17;;;3.93;;
17727;SDS011;8984;49.268;12.302;2023-12-29T11:47:59;4.53;;;3.87;;
17727;SDS011;8984;49.268;12.302;2023-12-29T11:50:28;4.93;;;3.63;;
17727;SDS011;8984;49.268;12.302;2023-12-29T11:53:00;3.43;;;3.07;;
17727;SDS011;8984;49.268;12.302;2023-12-29T11:55:30;4.40;;;3.20;;
17727;SDS011;8984;49.268;12.302;2023-12-29T11:58:01;3.80;;;3.40;;
17727;SDS011;8984;49.268;12.302;2023-12-29T12:00:44;5.60;;;4.00;;
17727;SDS011;8984;49.268;12.302;2023-12-29T12:03:23;3.80;;;3.40;;
17727;SDS011;8984;49.268;12.302;2023-12-29T12:05:52;3.87;;;3.47;;
17727;SDS011;8984;49.268;12.302;2023-12-29T12:08:32;4.37;;;3.40;;
17727;SDS011;8984;49.268;12.302;2023-12-29T12:14:08;3.63;;;3.10;;
17727;SDS011;8984;49.268;12.302;2023-12-29T12:16:47;3.40;;;3.10;;
17727;SDS011;8984;49.268;12.302;2023-12-29T12:19:23;6.60;;;5.47;;
17727;SDS011;8984;49.268;12.302;2023-12-29T12:21:56;3.37;;;3.07;;
17727;SDS011;8984;49.268;12.302;2023-12-29T12:24:31;3.50;;;2.97;;
17727;SDS011;8984;49.268;12.302;2023-12-29T12:27:14;3.73;;;2.90;;
17727;SDS011;8984;49.268;12.302;2023-12-29T12:29:52;3.60;;;3.00;;
17727;SDS011;8984;49.268;12.302;2023-12-29T12:32:26;4.17;;;2.87;;
17727;SDS011;8984;49.268;12.302;2023-12-29T12:34:56;3.97;;;2.83;;
17727;SDS011;8984;49.268;12.302;2023-12-29T12:40:24;3.20;;;2.90;;
17727;SDS011;8984;49.268;12.302;2023-12-29T12:42:52;3.07;;;2.70;;
17727;SDS011;8984;49.268;12.302;2023-12-29T12:45:20;3.40;;;2.97;;
17727;SDS011;8984;49.268;12.302;2023-12-29T12:47:54;3.40;;;2.90;;
17727;SDS011;8984;49.268;12.302;2023-12-29T12:50:48;3.13;;;2.60;;
17727;SDS011;8984;49.268;12.302;2023-12-29T12:53:35;3.20;;;2.90;;
17727;SDS011;8984;49.268;12.302;2023-12-29T12:56:10;3.63;;;3.33;;
17727;SDS011;8984;49.268;12.302;2023-12-29T12:58:58;3.00;;;2.70;;
17727;SDS011;8984;49.268;12.302;2023-12-29T13:01:35;3.60;;;3.27;;
17727;SDS011;8984;49.268;12.302;2023-12-29T13:04:31;4.03;;;3.20;;
17727;SDS011;8984;49.268;12.302;2023-12-29T13:07:07;3.23;;;2.87;;
17727;SDS011;8984;49.268;12.302;2023-12-29T13:09:35;2.83;;;2.60;;
17727;SDS011;8984;49.268;12.302;2023-12-29T13:12:09;4.60;;;3.83;;
17727;SDS011;8984;49.268;12.302;2023-12-29T13:14:38;6.57;;;4.30;;
17727;SDS011;8984;49.268;12.302;2023-12-29T13:17:05;7.03;;;4.50;;
17727;SDS011;8984;49.268;12.302;2023-12-29T13:22:06;9.60;;;5.50;;
17727;SDS011;8984;49.268;12.302;2023-12-29T13:24:34;7.00;;;4.27;;
17727;SDS011;8984;49.268;12.302;2023-12-29T13:27:02;3.33;;;3.00;;
17727;SDS011;8984;49.268;12.302;2023-12-29T13:29:32;3.10;;;2.80;;
17727;SDS011;8984;49.268;12.302;2023-12-29T13:32:01;3.83;;;3.40;;
17727;SDS011;8984;49.268;12.302;2023-12-29T13:34:33;4.20;;;3.00;;
17727;SDS011;8984;49.268;12.302;2023-12-29T13:37:18;4.43;;;3.53;;
17727;SDS011;8984;49.268;12.302;2023-12-29T13:39:53;3.57;;;2.93;;
17727;SDS011;8984;49.268;12.302;2023-12-29T13:42:23;3.33;;;3.03;;
17727;SDS011;8984;49.268;12.302;2023-12-29T13:44:53;4.57;;;3.40;;
17727;SDS011;8984;49.268;12.302;2023-12-29T13:47:36;4.27;;;3.87;;
17727;SDS011;8984;49.268;12.302;2023-12-29T13:50:08;4.37;;;3.50;;
17727;SDS011;8984;49.268;12.302;2023-12-29T13:53:05;3.50;;;3.17;;
17727;SDS011;8984;49.268;12.302;2023-12-29T13:55:36;7.53;;;5.07;;
17727;SDS011;8984;49.268;12.302;2023-12-29T13:58:17;4.20;;;3.77;;
17727;SDS011;8984;49.268;12.302;2023-12-29T14:00:45;3.87;;;3.30;;
17727;SDS011;8984;49.268;12.302;2023-12-29T14:03:22;3.83;;;3.47;;
17727;SDS011;8984;49.268;12.302;2023-12-29T14:05:51;5.00;;;3.47;;
17727;SDS011;8984;49.268;12.302;2023-12-29T14:08:25;15.67;;;11.40;;
17727;SDS011;8984;49.268;12.302;2023-12-29T14:10:59;9.03;;;7.63;;
17727;SDS011;8984;49.268;12.302;2023-12-29T14:13:26;5.80;;;5.00;;
17727;SDS011;8984;49.268;12.302;2023-12-29T14:15:53;12.03;;;8.77;;
17727;SDS011;8984;49.268;12.302;2023-12-29T14:21:21;18.20;;;13.00;;
17727;SDS011;8984;49.268;12.302;2023-12-29T15:12:12;3.40;;;3.10;;
17727;SDS011;8984;49.268;12.302;2023-12-29T15:14:39;3.33;;;3.00;;
17727;SDS011;8984;49.268;12.302;2023-12-29T15:17:06;3.73;;;2.80;;
17727;SDS011;8984;49.268;12.302;2023-12-29T15:19:33;3.17;;;2.87;;
17727;SDS011;8984;49.268;12.302;2023-12-29T15:22:01;2.90;;;2.60;;
17727;SDS011;8984;49.268;12.302;2023-12-29T15:24:28;3.13;;;2.73;;
17727;SDS011;8984;49.268;12.302;2023-12-29T15:26:55;4.30;;;2.80;;
17727;SDS011;8984;49.268;12.302;2023-12-29T15:29:23;2.97;;;2.73;;
17727;SDS011;8984;49.268;12.302;2023-12-29T15:31:54;5.20;;;3.07;;
17727;SDS011;8984;49.268;12.302;2023-12-29T15:34:21;3.37;;;2.77;;
17727;SDS011;8984;49.268;12.302;2023-12-29T15:36:48;3.00;;;2.70;;
17727;SDS011;8984;49.268;12.302;2023-12-29T15:39:15;3.53;;;2.63;;
17727;SDS011;8984;49.268;12.302;2023-12-29T15:41:41;3.13;;;2.70;;
17727;SDS011;8984;49.268;12.302;2023-12-29T15:44:13;3.60;;;3.10;;
17727;SDS011;8984;49.268;12.302;2023-12-29T15:46:45;3.27;;;2.93;;
17727;SDS011;8984;49.268;12.302;2023-12-29T15:49:14;3.67;;;3.23;;
17727;SDS011;8984;49.268;12.302;2023-12-29T15:51:44;4.77;;;3.67;;
17727;SDS011;8984;49.268;12.302;2023-12-29T15:54:15;4.93;;;4.23;;
17727;SDS011;8984;49.268;12.302;2023-12-29T15:56:45;5.20;;;3.30;;
17727;SDS011;8984;49.268;12.302;2023-12-29T15:59:21;4.40;;;3.60;;
17727;SDS011;8984;49.268;12.302;2023-12-29T16:01:51;3.90;;;3.60;;
17727;SDS011;8984;49.268;12.302;2023-12-29T16:04:19;4.40;;;3.73;;
17727;SDS011;8984;49.268;12.302;2023-12-29T16:06:49;4.27;;;3.30;;
17727;SDS011;8984;49.268;12.302;2023-12-29T16:09:19;10.93;;;7.17;;
17727;SDS011;8984;49.268;12.302;2023-12-29T16:11:51;27.37;;;17.37;;
17727;SDS011;8984;49.268;12.302;2023-12-29T16:14:41;10.07;;;7.30;;
17727;SDS011;8984;49.268;12.302;2023-12-29T16:17:16;4.53;;;4.07;;
17727;SDS011;8984;49.268;12.302;2023-12-29T16:19:46;4.30;;;3.90;;
17727;SDS011;8984;49.268;12.302;2023-12-29T16:22:17;4.30;;;3.90;;
17727;SDS011;8984;49.268;12.302;2023-12-29T16:28:02;5.27;;;3.93;;
17727;SDS011;8984;49.268;12.302;2023-12-29T16:30:32;5.10;;;3.70;;
17727;SDS011;8984;49.268;12.302;2023-12-29T16:33:05;4.53;;;3.93;;
17727;SDS011;8984;49.268;12.302;2023-12-29T16:35:40;6.13;;;4.87;;
17727;SDS011;8984;49.268;12.302;2023-12-29T16:38:09;5.23;;;4.20;;
17727;SDS011;8984;49.268;12.302;2023-12-29T16:40:42;6.00;;;4.20;;
17727;SDS011;8984;49.268;12.302;2023-12-29T16:43:11;3.37;;;3.00;;
17727;SDS011;8984;49.268;12.302;2023-12-29T16:45:45;3.30;;;2.90;;
17727;SDS011;8984;49.268;12.302;2023-12-29T16:48:16;3.17;;;2.70;;
17727;SDS011;8984;49.268;12.302;2023-12-29T16:50:45;4.20;;;3.80;;
17727;SDS011;8984;49.268;12.302;2023-12-29T16:53:13;3.83;;;3.10;;
17727;SDS011;8984;49.268;12.302;2023-12-29T16:55:42;3.50;;;2.60;;
17727;SDS011;8984;49.268;12.302;2023-12-29T16:58:11;2.93;;;2.63;;
17727;SDS011;8984;49.268;12.302;2023-12-29T17:00:45;3.87;;;2.90;;
17727;SDS011;8984;49.268;12.302;2023-12-29T17:03:16;4.00;;;2.60;;